sensor_id;sensor_type;location;lat;lon;timestamp;pressure;altitude;pressure_sealevel;temperature;humidity
51229;BME280;37304;52.216;6.874;2023-04-28T00:02:57;101146.97;;;7.76;100.00
51229;BME280;37304;52.216;6.874;2023-04-28T00:07:57;101148.69;;;7.74;100.00
51229;BME280;37304;52.216;6.874;2023-04-28T00:12:57;101139.22;;;7.70;100.00
51229;BME280;37304;52.216;6.874;2023-04-28T00:17:58;101137.50;;;7.66;100.00
51229;BME280;37304;52.216;6.874;2023-04-28T00:22:58;101121.06;;;7.61;100.00
51229;BME280;37304;52.216;6.874;2023-04-28T00:27:58;101115.06;;;7.54;100.00
51229;BME280;37304;52.216;6.874;2023-04-28T00:32:59;101103.00;;;7.50;100.00
51229;BME280;37304;52.216;6.874;2023-04-28T00:37:59;101085.72;;;7.50;100.00
51229;BME280;37304;52.216;6.874;2023-04-28T00:43:00;101079.72;;;7.50;100.00
51229;BME280;37304;52.216;6.874;2023-04-28T00:48:01;101070.22;;;7.49;100.00
51229;BME280;37304;52.216;6.874;2023-04-28T00:53:02;101071.94;;;7.42;100.00
51229;BME280;37304;52.216;6.874;2023-04-28T00:58:03;101078.00;;;7.36;100.00
51229;BME280;37304;52.216;6.874;2023-04-28T01:03:05;101063.31;;;7.37;100.00
51229;BME280;37304;52.216;6.874;2023-04-28T01:08:05;101056.44;;;7.29;100.00
51229;BME280;37304;52.216;6.874;2023-04-28T01:13:06;101052.97;;;7.23;100.00
51229;BME280;37304;52.216;6.874;2023-04-28T01:18:06;101046.09;;;7.23;100.00
51229;BME280;37304;52.216;6.874;2023-04-28T01:23:14;101033.16;;;7.16;100.00
51229;BME280;37304;52.216;6.874;2023-04-28T01:28:15;101027.97;;;7.12;100.00
51229;BME280;37304;52.216;6.874;2023-04-28T01:33:15;101021.97;;;7.06;100.00
51229;BME280;37304;52.216;6.874;2023-04-28T01:38:15;101017.66;;;7.08;100.00
51229;BME280;37304;52.216;6.874;2023-04-28T01:43:16;101025.41;;;7.02;100.00
51229;BME280;37304;52.216;6.874;2023-04-28T01:48:16;101016.78;;;6.99;100.00
51229;BME280;37304;52.216;6.874;2023-04-28T01:53:17;101025.38;;;6.89;100.00
51229;BME280;37304;52.216;6.874;2023-04-28T01:58:19;101021.94;;;6.89;100.00
51229;BME280;37304;52.216;6.874;2023-04-28T02:03:20;101021.06;;;6.87;100.00
51229;BME280;37304;52.216;6.874;2023-04-28T02:08:20;101004.72;;;6.88;100.00
51229;BME280;37304;52.216;6.874;2023-04-28T02:13:20;101000.41;;;6.91;100.00
51229;BME280;37304;52.216;6.874;2023-04-28T02:18:21;101000.41;;;6.93;100.00
51229;BME280;37304;52.216;6.874;2023-04-28T02:23:21;101003.00;;;6.96;100.00
51229;BME280;37304;52.216;6.874;2023-04-28T02:28:22;100994.41;;;7.05;100.00
51229;BME280;37304;52.216;6.874;2023-04-28T02:33:22;100984.94;;;7.01;100.00
51229;BME280;37304;52.216;6.874;2023-04-28T02:38:22;100977.19;;;7.04;100.00
51229;BME280;37304;52.216;6.874;2023-04-28T02:43:23;100983.19;;;7.13;100.00
51229;BME280;37304;52.216;6.874;2023-04-28T02:48:24;100991.78;;;7.16;100.00
51229;BME280;37304;52.216;6.874;2023-04-28T02:53:24;100979.75;;;7.13;100.00
51229;BME280;37304;52.216;6.874;2023-04-28T02:58:25;100968.56;;;7.08;100.00
51229;BME280;37304;52.216;6.874;2023-04-28T03:03:25;100965.97;;;7.12;100.00
51229;BME280;37304;52.216;6.874;2023-04-28T03:08:26;100952.16;;;7.13;100.00
51229;BME280;37304;52.216;6.874;2023-04-28T03:13:26;100946.16;;;7.16;100.00
51229;BME280;37304;52.216;6.874;2023-04-28T03:18:28;100939.25;;;7.17;100.00
51229;BME280;37304;52.216;6.874;2023-04-28T03:23:29;100931.47;;;7.23;100.00
51229;BME280;37304;52.216;6.874;2023-04-28T03:28:29;100925.47;;;7.22;100.00
51229;BME280;37304;52.216;6.874;2023-04-28T03:33:30;100920.28;;;7.25;100.00
51229;BME280;37304;52.216;6.874;2023-04-28T03:38:30;100914.25;;;7.29;100.00
51229;BME280;37304;52.216;6.874;2023-04-28T03:43:30;100904.75;;;7.32;100.00
51229;BME280;37304;52.216;6.874;2023-04-28T03:48:32;100908.19;;;7.34;100.00
51229;BME280;37304;52.216;6.874;2023-04-28T03:53:32;100892.69;;;7.40;100.00
51229;BME280;37304;52.216;6.874;2023-04-28T03:58:33;100871.16;;;7.39;100.00
51229;BME280;37304;52.216;6.874;2023-04-28T04:03:33;100874.56;;;7.46;100.00
51229;BME280;37304;52.216;6.874;2023-04-28T04:08:33;100865.94;;;7.52;100.00
51229;BME280;37304;52.216;6.874;2023-04-28T04:13:34;100867.63;;;7.51;100.00
51229;BME280;37304;52.216;6.874;2023-04-28T04:18:34;100865.91;;;7.56;100.00
51229;BME280;37304;52.216;6.874;2023-04-28T04:23:34;100872.78;;;7.64;100.00
51229;BME280;37304;52.216;6.874;2023-04-28T04:28:36;100873.59;;;7.70;100.00
51229;BME280;37304;52.216;6.874;2023-04-28T04:33:36;100877.06;;;7.74;100.00
51229;BME280;37304;52.216;6.874;2023-04-28T04:38:37;100874.44;;;7.77;100.00
51229;BME280;37304;52.216;6.874;2023-04-28T04:43:37;100858.88;;;7.82;100.00
51229;BME280;37304;52.216;6.874;2023-04-28T04:48:37;100855.47;;;7.81;100.00
51229;BME280;37304;52.216;6.874;2023-04-28T04:53:38;100852.00;;;7.82;100.00
51229;BME280;37304;52.216;6.874;2023-04-28T04:58:38;100850.25;;;7.84;100.00
51229;BME280;37304;52.216;6.874;2023-04-28T05:03:39;100855.41;;;7.91;100.00
51229;BME280;37304;52.216;6.874;2023-04-28T05:08:39;100843.34;;;7.85;100.00
51229;BME280;37304;52.216;6.874;2023-04-28T05:13:39;100836.41;;;7.95;100.00
51229;BME280;37304;52.216;6.874;2023-04-28T05:18:40;100843.25;;;8.02;100.00
51229;BME280;37304;52.216;6.874;2023-04-28T05:23:40;100832.88;;;8.07;100.00
51229;BME280;37304;52.216;6.874;2023-04-28T05:28:40;100844.00;;;8.20;100.00
51229;BME280;37304;52.216;6.874;2023-04-28T05:33:41;100851.75;;;8.23;100.00
51229;BME280;37304;52.216;6.874;2023-04-28T05:38:42;100832.69;;;8.35;100.00
51229;BME280;37304;52.216;6.874;2023-04-28T05:43:42;100829.19;;;8.39;100.00
51229;BME280;37304;52.216;6.874;2023-04-28T05:48:42;100819.63;;;8.52;100.00
51229;BME280;37304;52.216;6.874;2023-04-28T05:53:43;100809.25;;;8.53;100.00
51229;BME280;37304;52.216;6.874;2023-04-28T05:58:47;100798.81;;;8.59;100.00
51229;BME280;37304;52.216;6.874;2023-04-28T06:03:49;100797.03;;;8.69;100.00
51229;BME280;37304;52.216;6.874;2023-04-28T06:08:50;100799.53;;;8.80;100.00
51229;BME280;37304;52.216;6.874;2023-04-28T06:13:50;100798.59;;;8.86;100.00
51229;BME280;37304;52.216;6.874;2023-04-28T06:18:51;100794.25;;;8.89;100.00
51229;BME280;37304;52.216;6.874;2023-04-28T06:23:52;100794.03;;;9.08;100.00
51229;BME280;37304;52.216;6.874;2023-04-28T06:28:52;100777.56;;;9.14;100.00
51229;BME280;37304;52.216;6.874;2023-04-28T06:33:55;100785.22;;;9.22;100.00
51229;BME280;37304;52.216;6.874;2023-04-28T06:38:56;100788.69;;;9.22;100.00
51229;BME280;37304;52.216;6.874;2023-04-28T06:43:56;100803.38;;;9.22;100.00
51229;BME280;37304;52.216;6.874;2023-04-28T06:48:57;100814.53;;;9.30;100.00
51229;BME280;37304;52.216;6.874;2023-04-28T06:53:57;100801.59;;;9.27;100.00
51229;BME280;37304;52.216;6.874;2023-04-28T06:58:57;100798.03;;;9.37;100.00
51229;BME280;37304;52.216;6.874;2023-04-28T07:03:58;100803.16;;;9.42;100.00
51229;BME280;37304;52.216;6.874;2023-04-28T07:08:58;100811.75;;;9.44;100.00
51229;BME280;37304;52.216;6.874;2023-04-28T07:13:59;100811.66;;;9.53;100.00
51229;BME280;37304;52.216;6.874;2023-04-28T07:18:59;100821.16;;;9.54;100.00
51229;BME280;37304;52.216;6.874;2023-04-28T07:24:00;100823.78;;;9.53;100.00
51229;BME280;37304;52.216;6.874;2023-04-28T07:29:01;100822.81;;;9.60;100.00
51229;BME280;37304;52.216;6.874;2023-04-28T07:34:01;100818.28;;;9.76;100.00
51229;BME280;37304;52.216;6.874;2023-04-28T07:39:01;100816.53;;;9.76;100.00
51229;BME280;37304;52.216;6.874;2023-04-28T07:44:03;100819.00;;;9.86;100.00
51229;BME280;37304;52.216;6.874;2023-04-28T07:49:04;100811.56;;;9.63;100.00
51229;BME280;37304;52.216;6.874;2023-04-28T07:54:04;100820.97;;;9.70;100.00
51229;BME280;37304;52.216;6.874;2023-04-28T07:59:05;100814.94;;;9.66;100.00
51229;BME280;37304;52.216;6.874;2023-04-28T08:04:05;100811.34;;;9.78;100.00
51229;BME280;37304;52.216;6.874;2023-04-28T08:09:07;100800.50;;;9.45;100.00
51229;BME280;37304;52.216;6.874;2023-04-28T08:14:07;100783.06;;;9.56;100.00
51229;BME280;37304;52.216;6.874;2023-04-28T08:19:08;100802.63;;;9.82;100.00
51229;BME280;37304;52.216;6.874;2023-04-28T08:24:08;100805.19;;;9.85;100.00
51229;BME280;37304;52.216;6.874;2023-04-28T08:29:09;100806.84;;;9.88;100.00
51229;BME280;37304;52.216;6.874;2023-04-28T08:34:10;100802.53;;;9.87;100.00
51229;BME280;37304;52.216;6.874;2023-04-28T08:39:11;100808.63;;;9.86;100.00
51229;BME280;37304;52.216;6.874;2023-04-28T08:44:11;100809.31;;;10.00;100.00
51229;BME280;37304;52.216;6.874;2023-04-28T08:49:14;100802.72;;;10.32;100.00
51229;BME280;37304;52.216;6.874;2023-04-28T08:54:16;100797.13;;;10.57;100.00
51229;BME280;37304;52.216;6.874;2023-04-28T08:59:17;100805.53;;;10.73;100.00
51229;BME280;37304;52.216;6.874;2023-04-28T09:04:19;100793.38;;;10.75;100.00
51229;BME280;37304;52.216;6.874;2023-04-28T09:09:28;100793.69;;;11.04;100.00
51229;BME280;37304;52.216;6.874;2023-04-28T09:14:34;100781.63;;;11.01;100.00
51229;BME280;37304;52.216;6.874;2023-04-28T09:19:36;100783.34;;;11.45;100.00
51229;BME280;37304;52.216;6.874;2023-04-28T09:24:38;100772.84;;;11.49;100.00
51229;BME280;37304;52.216;6.874;2023-04-28T09:29:51;100777.84;;;11.98;100.00
51229;BME280;37304;52.216;6.874;2023-04-28T09:34:53;100767.78;;;12.20;100.00
51229;BME280;37304;52.216;6.874;2023-04-28T09:39:56;100769.34;;;12.28;100.00
51229;BME280;37304;52.216;6.874;2023-04-28T09:44:57;100764.31;;;12.55;100.00
51229;BME280;37304;52.216;6.874;2023-04-28T09:49:59;100747.50;;;12.66;100.00
51229;BME280;37304;52.216;6.874;2023-04-28T09:55:05;100743.69;;;13.10;100.00
51229;BME280;37304;52.216;6.874;2023-04-28T10:00:06;100740.81;;;13.19;100.00
51229;BME280;37304;52.216;6.874;2023-04-28T10:05:08;100728.56;;;13.21;100.00
51229;BME280;37304;52.216;6.874;2023-04-28T10:10:09;100727.56;;;13.84;100.00
51229;BME280;37304;52.216;6.874;2023-04-28T10:15:11;100721.34;;;13.61;100.00
51229;BME280;37304;52.216;6.874;2023-04-28T10:20:14;100707.31;;;14.18;100.00
51229;BME280;37304;52.216;6.874;2023-04-28T10:25:25;100696.47;;;14.54;100.00
51229;BME280;37304;52.216;6.874;2023-04-28T10:30:26;100691.97;;;15.31;100.00
51229;BME280;37304;52.216;6.874;2023-04-28T10:40:32;100685.56;;;17.05;100.00
51229;BME280;37304;52.216;6.874;2023-04-28T10:56:22;100674.88;;;16.89;100.00
51229;BME280;37304;52.216;6.874;2023-04-28T11:01:27;100675.00;;;16.86;100.00
51229;BME280;37304;52.216;6.874;2023-04-28T11:06:30;100669.75;;;16.06;100.00
51229;BME280;37304;52.216;6.874;2023-04-28T11:11:33;100670.16;;;15.75;100.00
51229;BME280;37304;52.216;6.874;2023-04-28T11:16:47;100678.84;;;15.53;100.00
51229;BME280;37304;52.216;6.874;2023-04-28T11:21:48;100686.38;;;14.94;100.00
51229;BME280;37304;52.216;6.874;2023-04-28T11:26:49;100678.16;;;14.79;100.00
51229;BME280;37304;52.216;6.874;2023-04-28T11:31:50;100671.91;;;14.34;100.00
51229;BME280;37304;52.216;6.874;2023-04-28T11:36:51;100690.78;;;13.92;100.00
51229;BME280;37304;52.216;6.874;2023-04-28T11:41:51;100688.16;;;13.92;100.00
51229;BME280;37304;52.216;6.874;2023-04-28T11:46:54;100691.75;;;14.15;100.00
51229;BME280;37304;52.216;6.874;2023-04-28T11:52:06;100691.22;;;14.30;100.00
51229;BME280;37304;52.216;6.874;2023-04-28T11:57:16;100680.09;;;14.23;100.00
51229;BME280;37304;52.216;6.874;2023-04-28T12:02:24;100682.69;;;14.25;100.00
51229;BME280;37304;52.216;6.874;2023-04-28T12:07:26;100683.47;;;14.27;100.00
51229;BME280;37304;52.216;6.874;2023-04-28T12:12:28;100681.00;;;14.22;100.00
51229;BME280;37304;52.216;6.874;2023-04-28T12:17:35;100690.59;;;13.96;100.00
51229;BME280;37304;52.216;6.874;2023-04-28T12:22:47;100691.50;;;13.95;100.00
51229;BME280;37304;52.216;6.874;2023-04-28T12:28:02;100692.75;;;13.83;100.00
51229;BME280;37304;52.216;6.874;2023-04-28T12:33:03;100703.75;;;13.66;100.00
51229;BME280;37304;52.216;6.874;2023-04-28T12:38:03;100706.75;;;13.54;100.00
51229;BME280;37304;52.216;6.874;2023-04-28T12:43:03;100713.75;;;13.52;100.00
51229;BME280;37304;52.216;6.874;2023-04-28T12:48:04;100711.94;;;13.56;100.00
51229;BME280;37304;52.216;6.874;2023-04-28T12:53:04;100711.59;;;13.66;100.00
51229;BME280;37304;52.216;6.874;2023-04-28T12:58:05;100709.59;;;13.46;100.00
51229;BME280;37304;52.216;6.874;2023-04-28T13:03:06;100712.13;;;13.49;100.00
51229;BME280;37304;52.216;6.874;2023-04-28T13:08:06;100702.63;;;13.47;100.00
51229;BME280;37304;52.216;6.874;2023-04-28T13:13:06;100701.34;;;13.60;100.00
51229;BME280;37304;52.216;6.874;2023-04-28T13:18:07;100696.25;;;13.82;100.00
51229;BME280;37304;52.216;6.874;2023-04-28T13:23:07;100685.81;;;14.09;100.00
51229;BME280;37304;52.216;6.874;2023-04-28T13:28:07;100668.75;;;14.24;100.00
51229;BME280;37304;52.216;6.874;2023-04-28T13:33:08;100663.94;;;14.37;100.00
51229;BME280;37304;52.216;6.874;2023-04-28T13:38:08;100663.00;;;14.40;100.00
51229;BME280;37304;52.216;6.874;2023-04-28T13:43:08;100652.13;;;14.51;100.00
51229;BME280;37304;52.216;6.874;2023-04-28T13:48:09;100642.31;;;14.34;100.00
51229;BME280;37304;52.216;6.874;2023-04-28T13:53:10;100643.44;;;14.50;100.00
51229;BME280;37304;52.216;6.874;2023-04-28T13:58:11;100642.56;;;14.50;100.00
51229;BME280;37304;52.216;6.874;2023-04-28T14:03:11;100644.50;;;14.45;100.00
51229;BME280;37304;52.216;6.874;2023-04-28T14:08:12;100644.00;;;14.09;100.00
51229;BME280;37304;52.216;6.874;2023-04-28T14:13:13;100657.53;;;13.95;100.00
51229;BME280;37304;52.216;6.874;2023-04-28T14:18:13;100655.25;;;13.86;100.00
51229;BME280;37304;52.216;6.874;2023-04-28T14:23:14;100657.66;;;13.92;100.00
51229;BME280;37304;52.216;6.874;2023-04-28T14:28:15;100658.88;;;14.07;100.00
51229;BME280;37304;52.216;6.874;2023-04-28T14:33:15;100668.09;;;13.92;100.00
51229;BME280;37304;52.216;6.874;2023-04-28T14:38:16;100660.38;;;13.89;100.00
51229;BME280;37304;52.216;6.874;2023-04-28T14:43:16;100669.25;;;13.83;100.00
51229;BME280;37304;52.216;6.874;2023-04-28T14:48:17;100661.25;;;13.88;100.00
51229;BME280;37304;52.216;6.874;2023-04-28T14:53:17;100652.22;;;13.98;100.00
51229;BME280;37304;52.216;6.874;2023-04-28T14:58:18;100646.22;;;14.20;100.00
51229;BME280;37304;52.216;6.874;2023-04-28T15:03:18;100637.56;;;14.20;100.00
51229;BME280;37304;52.216;6.874;2023-04-28T15:08:19;100644.94;;;14.32;100.00
51229;BME280;37304;52.216;6.874;2023-04-28T15:13:19;100636.00;;;14.14;100.00
51229;BME280;37304;52.216;6.874;2023-04-28T15:18:21;100636.50;;;14.00;100.00
51229;BME280;37304;52.216;6.874;2023-04-28T15:23:21;100641.75;;;13.98;100.00
51229;BME280;37304;52.216;6.874;2023-04-28T15:28:21;100654.34;;;13.87;100.00
51229;BME280;37304;52.216;6.874;2023-04-28T15:33:22;100651.94;;;13.81;100.00
51229;BME280;37304;52.216;6.874;2023-04-28T15:38:23;100660.47;;;13.86;100.00
51229;BME280;37304;52.216;6.874;2023-04-28T15:43:23;100661.25;;;13.88;100.00
51229;BME280;37304;52.216;6.874;2023-04-28T15:48:24;100661.25;;;13.88;100.00
51229;BME280;37304;52.216;6.874;2023-04-28T15:53:24;100673.31;;;13.92;100.00
51229;BME280;37304;52.216;6.874;2023-04-28T15:58:25;100677.06;;;13.83;100.00
51229;BME280;37304;52.216;6.874;2023-04-28T16:03:26;100676.16;;;13.84;100.00
51229;BME280;37304;52.216;6.874;2023-04-28T16:08:26;100679.97;;;13.76;100.00
51229;BME280;37304;52.216;6.874;2023-04-28T16:13:28;100686.00;;;13.78;100.00
51229;BME280;37304;52.216;6.874;2023-04-28T16:18:31;100688.00;;;13.69;100.00
51229;BME280;37304;52.216;6.874;2023-04-28T16:23:32;100693.97;;;13.73;100.00
51229;BME280;37304;52.216;6.874;2023-04-28T16:28:33;100696.78;;;13.67;100.00
51229;BME280;37304;52.216;6.874;2023-04-28T16:33:33;100694.25;;;13.64;100.00
51229;BME280;37304;52.216;6.874;2023-04-28T16:38:34;100695.22;;;13.61;100.00
51229;BME280;37304;52.216;6.874;2023-04-28T16:43:34;100690.13;;;13.57;100.00
51229;BME280;37304;52.216;6.874;2023-04-28T16:48:37;100700.91;;;13.46;100.00
51229;BME280;37304;52.216;6.874;2023-04-28T16:53:37;100713.28;;;13.39;100.00
51229;BME280;37304;52.216;6.874;2023-04-28T16:58:38;100717.00;;;13.30;100.00
51229;BME280;37304;52.216;6.874;2023-04-28T17:03:38;100718.81;;;13.28;100.00
51229;BME280;37304;52.216;6.874;2023-04-28T17:08:40;100721.38;;;13.30;100.00
51229;BME280;37304;52.216;6.874;2023-04-28T17:13:41;100727.53;;;13.27;100.00
51229;BME280;37304;52.216;6.874;2023-04-28T17:18:41;100714.50;;;13.27;100.00
51229;BME280;37304;52.216;6.874;2023-04-28T17:23:42;100720.63;;;13.26;100.00
51229;BME280;37304;52.216;6.874;2023-04-28T17:28:45;100720.00;;;13.18;100.00
51229;BME280;37304;52.216;6.874;2023-04-28T17:33:46;100715.84;;;13.10;100.00
51229;BME280;37304;52.216;6.874;2023-04-28T17:38:47;100726.50;;;13.03;100.00
51229;BME280;37304;52.216;6.874;2023-04-28T17:43:48;100729.16;;;13.01;100.00
51229;BME280;37304;52.216;6.874;2023-04-28T17:48:48;100737.91;;;13.00;100.00
51229;BME280;37304;52.216;6.874;2023-04-28T17:53:48;100740.75;;;12.91;100.00
51229;BME280;37304;52.216;6.874;2023-04-28T17:58:49;100744.31;;;12.88;100.00
51229;BME280;37304;52.216;6.874;2023-04-28T18:03:49;100742.38;;;12.95;100.00
51229;BME280;37304;52.216;6.874;2023-04-28T18:08:53;100749.53;;;12.87;100.00
51229;BME280;37304;52.216;6.874;2023-04-28T18:13:53;100755.75;;;12.82;100.00
51229;BME280;37304;52.216;6.874;2023-04-28T18:18:54;100755.75;;;12.82;100.00
51229;BME280;37304;52.216;6.874;2023-04-28T18:23:54;100755.16;;;12.73;100.00
51229;BME280;37304;52.216;6.874;2023-04-28T18:28:57;100754.22;;;12.75;100.00
51229;BME280;37304;52.216;6.874;2023-04-28T18:34:01;100761.22;;;12.73;100.00
51229;BME280;37304;52.216;6.874;2023-04-28T18:39:03;100758.59;;;12.73;100.00
51229;BME280;37304;52.216;6.874;2023-04-28T18:44:03;100759.59;;;12.69;100.00
51229;BME280;37304;52.216;6.874;2023-04-28T18:49:04;100766.50;;;12.70;100.00
51229;BME280;37304;52.216;6.874;2023-04-28T18:54:05;100763.97;;;12.69;100.00
51229;BME280;37304;52.216;6.874;2023-04-28T18:59:06;100772.88;;;12.60;100.00
51229;BME280;37304;52.216;6.874;2023-04-28T19:04:08;100767.91;;;12.50;100.00
51229;BME280;37304;52.216;6.874;2023-04-28T19:09:10;100772.25;;;12.50;100.00
51229;BME280;37304;52.216;6.874;2023-04-28T19:14:11;100784.53;;;12.46;100.00
51229;BME280;37304;52.216;6.874;2023-04-28T19:19:11;100799.56;;;12.35;100.00
51229;BME280;37304;52.216;6.874;2023-04-28T19:24:12;100798.72;;;12.34;100.00
51229;BME280;37304;52.216;6.874;2023-04-28T19:29:12;100809.28;;;12.28;100.00
51229;BME280;37304;52.216;6.874;2023-04-28T19:34:16;100814.59;;;12.23;100.00
51229;BME280;37304;52.216;6.874;2023-04-28T19:39:17;100822.47;;;12.20;100.00
51229;BME280;37304;52.216;6.874;2023-04-28T19:44:17;100827.03;;;12.12;100.00
51229;BME280;37304;52.216;6.874;2023-04-28T19:49:19;100815.91;;;12.05;100.00
51229;BME280;37304;52.216;6.874;2023-04-28T19:54:20;100822.06;;;12.00;100.00
51229;BME280;37304;52.216;6.874;2023-04-28T19:59:21;100830.03;;;11.93;100.00
51229;BME280;37304;52.216;6.874;2023-04-28T20:04:22;100833.50;;;11.94;100.00
51229;BME280;37304;52.216;6.874;2023-04-28T20:09:22;100830.03;;;11.93;100.00
51229;BME280;37304;52.216;6.874;2023-04-28T20:14:23;100841.31;;;11.94;100.00
51229;BME280;37304;52.216;6.874;2023-04-28T20:19:24;100847.28;;;11.98;100.00
51229;BME280;37304;52.216;6.874;2023-04-28T20:24:25;100848.31;;;11.90;100.00
51229;BME280;37304;52.216;6.874;2023-04-28T20:29:33;100853.44;;;11.95;100.00
51229;BME280;37304;52.216;6.874;2023-04-28T20:34:35;100857.91;;;11.88;100.00
51229;BME280;37304;52.216;6.874;2023-04-28T20:39:35;100854.56;;;11.83;100.00
51229;BME280;37304;52.216;6.874;2023-04-28T20:44:35;100859.84;;;11.80;100.00
51229;BME280;37304;52.216;6.874;2023-04-28T20:49:36;100864.16;;;11.81;100.00
51229;BME280;37304;52.216;6.874;2023-04-28T20:54:36;100859.84;;;11.78;100.00
51229;BME280;37304;52.216;6.874;2023-04-28T20:59:36;100864.09;;;11.83;100.00
51229;BME280;37304;52.216;6.874;2023-04-28T21:04:37;100859.78;;;11.82;100.00
51229;BME280;37304;52.216;6.874;2023-04-28T21:09:37;100866.06;;;11.73;100.00
51229;BME280;37304;52.216;6.874;2023-04-28T21:14:41;100870.44;;;11.71;100.00
51229;BME280;37304;52.216;6.874;2023-04-28T21:19:41;100867.91;;;11.68;100.00
51229;BME280;37304;52.216;6.874;2023-04-28T21:24:42;100865.53;;;11.57;100.00
51229;BME280;37304;52.216;6.874;2023-04-28T21:29:42;100874.97;;;11.61;100.00
51229;BME280;37304;52.216;6.874;2023-04-28T21:34:46;100882.97;;;11.51;100.00
51229;BME280;37304;52.216;6.874;2023-04-28T21:39:47;100886.41;;;11.54;100.00
51229;BME280;37304;52.216;6.874;2023-04-28T21:44:47;100896.97;;;11.46;100.00
51229;BME280;37304;52.216;6.874;2023-04-28T21:49:48;100900.69;;;11.32;100.00
51229;BME280;37304;52.216;6.874;2023-04-28T21:54:48;100903.59;;;11.15;100.00
51229;BME280;37304;52.216;6.874;2023-04-28T21:59:49;100902.81;;;11.12;100.00
51229;BME280;37304;52.216;6.874;2023-04-28T22:04:49;100907.34;;;11.00;100.00
51229;BME280;37304;52.216;6.874;2023-04-28T22:09:53;100908.41;;;10.87;100.00
51229;BME280;37304;52.216;6.874;2023-04-28T22:14:53;100912.97;;;10.74;100.00
51229;BME280;37304;52.216;6.874;2023-04-28T22:19:53;100919.13;;;10.68;100.00
51229;BME280;37304;52.216;6.874;2023-04-28T22:24:54;100926.22;;;10.57;100.00
51229;BME280;37304;52.216;6.874;2023-04-28T22:29:54;100925.41;;;10.55;100.00
51229;BME280;37304;52.216;6.874;2023-04-28T22:34:55;100928.03;;;10.52;100.00
51229;BME280;37304;52.216;6.874;2023-04-28T22:39:55;100928.13;;;10.45;100.00
51229;BME280;37304;52.216;6.874;2023-04-28T22:44:56;100939.47;;;10.37;100.00
51229;BME280;37304;52.216;6.874;2023-04-28T22:49:56;100947.34;;;10.32;100.00
51229;BME280;37304;52.216;6.874;2023-04-28T22:54:56;100952.59;;;10.26;100.00
51229;BME280;37304;52.216;6.874;2023-04-28T22:59:57;100957.16;;;10.08;100.00
51229;BME280;37304;52.216;6.874;2023-04-28T23:04:58;100952.81;;;10.10;100.00
51229;BME280;37304;52.216;6.874;2023-04-28T23:09:58;100950.25;;;10.07;100.00
51229;BME280;37304;52.216;6.874;2023-04-28T23:14:59;100958.94;;;10.06;100.00
51229;BME280;37304;52.216;6.874;2023-04-28T23:19:59;100958.13;;;10.02;100.00
51229;BME280;37304;52.216;6.874;2023-04-28T23:24:59;100956.44;;;9.97;100.00
51229;BME280;37304;52.216;6.874;2023-04-28T23:30:00;100969.34;;;10.03;100.00
51229;BME280;37304;52.216;6.874;2023-04-28T23:35:00;100966.84;;;9.97;100.00
51229;BME280;37304;52.216;6.874;2023-04-28T23:40:01;100979.03;;;9.91;100.00
51229;BME280;37304;52.216;6.874;2023-04-28T23:45:03;100974.66;;;9.92;100.00
51229;BME280;37304;52.216;6.874;2023-04-28T23:50:04;100985.09;;;9.89;100.00
51229;BME280;37304;52.216;6.874;2023-04-28T23:55:06;100989.47;;;9.85;100.00
